Flight Track Log - Related Links

Times and Time Zones

All times are in EDT time to prevent confusion due to time zone crossing. See the UAL252 flight status page for this flight to view local times or setup timezone preferences in your user account.

Time Position Orientation Groundspeed Altitude Reporting Facility
EDT Latitude Longitude Course Direction KTS MPH feet Rate Location/Type
Wed 08:06:54 PM 39.9000 -104.7500 344° North 216 249 7,800  Level Denver TRACON
Wed 08:07:48 PM 39.9667 -104.7667 349° North 273 314 9,700 1,737 Climbing Denver TRACON
Wed 08:08:10 PM 39.9883 -104.7767 341° North 279 321 10,000 1,286 Climbing Denver Center
Wed 08:09:00 PM 40.2520 -104.7906 347° North  Level FlightAware
Wed 08:09:12 PM 40.0822 -104.7828 357° North 334 384 11,500  Level Denver Center
Wed 08:10:00 PM 40.3524 -104.8236 345° North  Level FlightAware
Wed 08:10:26 PM 40.1819 -104.7922 356° North 358 412 15,300  Level Denver Center
Wed 08:11:00 PM 40.4520 -104.8598 345° North  Level FlightAware
Wed 08:11:29 PM 40.3261 -104.8064 356° North 404 465 19,600  Level Denver Center
Wed 08:12:00 PM 40.5517 -104.8964 344° North  Level FlightAware
Wed 08:12:31 PM 40.4389 -104.8169 356° North 404 465 22,100  Level Denver Center
Wed 08:13:32 PM 40.5464 -104.8297 355° North 446 513 22,900 1,500 Climbing Denver Center
Wed 08:14:35 PM 40.7086 -104.8447 356° North 511 588 25,200 2,160 Climbing Denver Center
Wed 08:15:37 PM 40.8450 -104.8761 350° North 494 568 27,400 1,935 Climbing Denver Center
Wed 08:16:39 PM 40.9969 -104.9544 339° North 496 571 29,200 1,500 Climbing Denver Center
Wed 08:17:41 PM 41.1181 -105.0119 340° North 483 556 30,500 968 Climbing Denver Center
Wed 08:18:43 PM 41.2408 -105.0739 339° North 490 564 31,200 1,355 Climbing Denver Center
Wed 08:19:45 PM 41.3800 -105.1431 340° North 478 550 33,300 1,366 Climbing Denver Center
Wed 08:20:46 PM 41.4972 -105.2003 340° North 470 541 34,000 927 Climbing Denver Center
Wed 08:21:48 PM 41.6314 -105.2836 335° Northwest 471 542 35,200 919 Climbing Denver Center
Wed 08:22:50 PM 41.7397 -105.3656 331° Northwest 467 537 35,900 387 Climbing Denver Center
Wed 08:23:52 PM 41.8667 -105.4597 331° Northwest 467 537 36,000 48 Climbing Denver Center
Wed 08:24:54 PM 41.9769 -105.5414 331° Northwest 470 541 36,000  Level Denver Center
Wed 08:25:56 PM 42.0844 -105.6228 331° Northwest 463 533 36,000  Level Denver Center
Wed 08:26:58 PM 42.2094 -105.7161 331° Northwest 461 531 36,000  Level Denver Center
Wed 08:27:59 PM 42.3153 -105.7958 331° Northwest 456 525 36,000  Level Denver Center
Wed 08:29:01 PM 42.4403 -105.8917 331° Northwest 459 528 36,000  Level Denver Center
Wed 08:30:03 PM 42.5481 -105.9725 331° Northwest 461 531 36,000  Level Denver Center
Wed 08:31:05 PM 42.6717 -106.0678 330° Northwest 457 526 36,000  Level Denver Center
Wed 08:32:07 PM 42.7792 -106.1489 331° Northwest 459 528 36,000  Level Denver Center
Wed 08:33:09 PM 42.8836 -106.2319 330° Northwest 455 524 36,000  Level Denver Center
Wed 08:34:10 PM 43.0058 -106.3253 331° Northwest 450 518 36,000  Level Denver Center
Wed 08:35:24 PM 43.1094 -106.4061 330° Northwest 449 517 36,000  Level Denver Center
Wed 08:36:27 PM 43.2464 -106.5139 330° Northwest 444 511 36,000  Level Denver Center
Wed 08:37:28 PM 43.3500 -106.5942 331° Northwest 445 512 36,000  Level Denver Center
Wed 08:38:30 PM 43.4517 -106.6736 330° Northwest 439 505 36,000  Level Denver Center
Wed 08:39:32 PM 43.5708 -106.7681 330° Northwest 440 506 36,000  Level Denver Center
Wed 08:40:34 PM 43.6883 -106.8608 330° Northwest 436 502 36,000 -78 Level Denver Center
Wed 08:40:49 PM 43.7047 -106.8758 327° Northwest 435 501 35,900  Descending Salt Center
Wed 08:41:51 PM 43.8164 -106.9694 329° Northwest 435 501 36,000 48 Climbing Salt Center
Wed 08:42:53 PM 43.9178 -107.0486 331° Northwest 436 502 36,000  Level Salt Center
Wed 08:43:55 PM 44.0372 -107.1428 330° Northwest 440 506 36,000  Level Salt Center
Wed 08:44:41 PM 44.1228 -107.2100 331° Northwest 440 506 36,000  Level Denver Center
Wed 08:44:56 PM 44.1383 -107.2247 326° Northwest 437 503 36,000  Level Salt Center
Wed 08:45:58 PM 44.2553 -107.3206 330° Northwest 434 499 36,000 -532 Level Salt Center
Wed 08:47:00 PM 44.3536 -107.4008 330° Northwest 428 493 34,900 -1,742 Descending Salt Center
Wed 08:48:02 PM 44.4694 -107.4950 330° Northwest 430 495 32,400 -2,244 Descending Salt Center
Wed 08:49:03 PM 44.5681 -107.5753 330° Northwest 429 494 30,300 -2,244 Descending Salt Center
Wed 08:50:05 PM 44.6819 -107.6694 330° Northwest 426 490 27,800 -2,419 Descending Salt Center
Wed 08:51:07 PM 44.7753 -107.7469 329° Northwest 413 475 25,300 -2,565 Descending Salt Center
Wed 08:52:09 PM 44.8778 -107.8308 330° Northwest 394 453 22,500 -2,488 Descending Salt Center
Wed 08:53:10 PM 44.9647 -107.9025 330° Northwest 386 444 20,200 -2,244 Descending Salt Center
Wed 08:54:12 PM 45.0633 -107.9856 329° Northwest 377 434 17,900 -2,049 Descending Salt Center
Wed 08:55:13 PM 45.1561 -108.0664 328° Northwest 379 436 16,000 -927 Descending Salt Center
Wed 08:56:15 PM 45.2489 -108.1444 329° Northwest 391 450 16,000 -677 Level Salt Center
Wed 08:57:17 PM 45.3472 -108.1953 340° North 381 438 14,600 -2,000 Descending Salt Center
Wed 08:58:18 PM 45.4500 -108.2458 341° North 366 421 11,900 -2,195 Descending Salt Center
Wed 08:59:20 PM 45.5403 -108.2892 341° North 350 403 10,100 -1,366 Descending Salt Center
Wed 09:00:21 PM 45.6242 -108.3269 343° North 295 339 9,100 -683 Descending Salt Center
Wed 09:01:23 PM 45.6911 -108.3519 345° North 246 283 8,700 -387 Descending Salt Center

Login

Don't have an account? Register now (free) for customized features, flight alerts, and more!